Terminal Aerodrome Forecast
Issued by NWS Grand Rapids, MI

Home | Current Version | Previous Version | Text Only | Print | Product List | Glossary On
Versions: 1 2 3 4 5 6 7 8 9 10 11 12 13 14 15 16 17 18 19 20 21 22 23 24 25 26 27 28 29 30
104
FTUS43 KGRR 110540
TAFGRR
TAF
KGRR 110540Z 1106/1206 12008KT 4SM -SN BR OVC025
      TEMPO 1106/1110 1 1/2SM -SN BR OVC015
     FM111000 12007KT 1SM -SN BR OVC009
     FM111400 15012KT 3/4SM -SN BR OVC004
     FM112000 16010KT 3/4SM -SN BR OVC004
     FM120400 19007KT 2SM -SN BR OVC008=

USA.gov is the U.S. government's official web portal to all federal, state and local government web resources and services.